createdAt,value
2018-11-11T00:01:46.179Z,99.90
2018-11-11T00:04:15.850Z,99.90
2018-11-11T00:06:44.882Z,99.90
2018-11-11T00:09:14.115Z,99.90
2018-11-11T00:11:43.397Z,99.90
2018-11-11T00:14:12.785Z,99.90
2018-11-11T00:16:42.017Z,99.90
2018-11-11T00:19:11.147Z,99.90
2018-11-11T00:21:40.468Z,99.90
2018-11-11T00:24:09.411Z,99.90
2018-11-11T00:26:38.886Z,99.90
2018-11-11T00:29:08.364Z,99.90
2018-11-11T00:31:38.141Z,99.90
2018-11-11T00:34:07.502Z,99.90
2018-11-11T00:36:36.886Z,99.90
2018-11-11T00:39:07.978Z,99.90
2018-11-11T00:41:37.406Z,99.90
2018-11-11T00:44:06.668Z,99.90
2018-11-11T00:46:36.012Z,99.90
2018-11-11T00:49:05.309Z,99.90
2018-11-11T00:51:34.507Z,99.90
2018-11-11T00:54:04.143Z,99.90
2018-11-11T00:56:33.413Z,99.90
2018-11-11T00:59:02.895Z,99.90
2018-11-11T01:01:32.322Z,99.90
2018-11-11T01:04:01.594Z,99.90
2018-11-11T01:06:30.838Z,99.90
2018-11-11T01:09:00.099Z,99.90
2018-11-11T01:11:29.448Z,99.90
2018-11-11T01:13:58.916Z,99.90
2018-11-11T01:16:28.183Z,99.90
2018-11-11T01:18:57.592Z,99.90
2018-11-11T01:21:26.768Z,99.90
2018-11-11T01:23:56.415Z,99.90
2018-11-11T01:26:25.461Z,99.90
2018-11-11T01:28:54.640Z,99.90
2018-11-11T01:31:23.884Z,99.90
2018-11-11T01:33:53.305Z,99.90
2018-11-11T01:36:22.867Z,99.90
2018-11-11T01:38:52.136Z,99.90
2018-11-11T01:41:21.355Z,99.90
2018-11-11T01:43:51.120Z,99.90
2018-11-11T01:46:20.724Z,99.90
2018-11-11T01:48:50.128Z,99.90
2018-11-11T01:51:19.516Z,99.90
2018-11-11T01:53:48.904Z,99.90
2018-11-11T01:56:18.392Z,99.90
2018-11-11T01:58:47.635Z,99.90
2018-11-11T02:01:16.865Z,99.90
2018-11-11T02:03:45.817Z,99.90
2018-11-11T02:06:15.447Z,99.90
2018-11-11T02:08:45.125Z,99.90
2018-11-11T02:11:14.283Z,99.90
2018-11-11T02:13:43.581Z,99.90
2018-11-11T02:16:12.800Z,99.90
2018-11-11T02:18:42.184Z,99.90
2018-11-11T02:21:11.707Z,99.90
2018-11-11T02:23:40.884Z,99.90
2018-11-11T02:26:10.257Z,99.90
2018-11-11T02:28:39.533Z,99.90
2018-11-11T02:31:09.055Z,99.90
2018-11-11T02:33:38.384Z,99.90
2018-11-11T02:36:07.943Z,99.90
2018-11-11T02:38:37.225Z,99.90
2018-11-11T02:41:06.837Z,99.90
2018-11-11T02:43:36.327Z,99.90
2018-11-11T02:46:05.876Z,99.90
2018-11-11T02:48:34.992Z,99.90
2018-11-11T02:51:04.328Z,99.90
2018-11-11T02:53:33.419Z,99.90
2018-11-11T02:56:03.001Z,99.90
2018-11-11T02:58:32.249Z,99.90
2018-11-11T03:01:01.308Z,99.90
2018-11-11T03:03:30.554Z,99.90
2018-11-11T03:05:59.704Z,99.90
2018-11-11T03:08:28.957Z,99.90
2018-11-11T03:10:58.280Z,99.90
2018-11-11T03:13:27.840Z,99.90
2018-11-11T03:15:56.968Z,99.90
2018-11-11T03:18:26.125Z,99.90
2018-11-11T03:20:55.271Z,99.90
2018-11-11T03:23:24.445Z,99.90
2018-11-11T03:25:53.632Z,99.90
2018-11-11T03:28:22.975Z,99.90
2018-11-11T03:30:52.316Z,99.90
2018-11-11T03:33:21.708Z,99.90
2018-11-11T03:35:50.996Z,99.90
2018-11-11T03:38:20.537Z,99.90
2018-11-11T03:40:49.661Z,99.90
2018-11-11T03:43:19.108Z,99.90
2018-11-11T03:45:48.331Z,99.90
2018-11-11T03:48:17.408Z,99.90
2018-11-11T03:50:46.484Z,99.90
2018-11-11T03:53:15.513Z,99.90
2018-11-11T03:55:44.686Z,99.90
2018-11-11T03:58:13.985Z,99.90
2018-11-11T04:00:43.153Z,99.90
2018-11-11T04:03:12.341Z,99.90
2018-11-11T04:05:41.917Z,99.90
2018-11-11T04:08:10.970Z,99.90
2018-11-11T04:10:40.218Z,99.90
2018-11-11T04:13:09.441Z,99.90
2018-11-11T04:15:38.869Z,99.90
2018-11-11T04:18:08.297Z,99.90
2018-11-11T04:20:37.433Z,99.90
2018-11-11T04:23:07.039Z,99.90
2018-11-11T04:25:36.384Z,99.90
2018-11-11T04:28:05.521Z,99.90
2018-11-11T04:30:35.581Z,99.90
2018-11-11T04:33:05.046Z,99.90
2018-11-11T04:35:34.384Z,99.90
2018-11-11T04:38:03.673Z,99.90
2018-11-11T04:40:33.040Z,99.90
2018-11-11T04:43:02.219Z,99.90
2018-11-11T04:45:31.461Z,99.90
2018-11-11T04:48:00.739Z,99.90
2018-11-11T04:50:30.492Z,99.90
2018-11-11T04:52:59.627Z,99.90
2018-11-11T04:55:29.186Z,99.90
2018-11-11T04:57:58.712Z,99.90
2018-11-11T05:00:28.069Z,99.90
2018-11-11T05:02:57.140Z,99.90
2018-11-11T05:05:26.429Z,99.90
2018-11-11T05:07:55.920Z,99.90
2018-11-11T05:10:25.328Z,99.90
2018-11-11T05:12:54.484Z,99.90
2018-11-11T05:15:24.157Z,99.90
2018-11-11T05:17:53.496Z,99.90
2018-11-11T05:20:22.844Z,99.90
2018-11-11T05:22:52.336Z,99.90
2018-11-11T05:25:21.635Z,99.90
2018-11-11T05:27:50.830Z,99.90
2018-11-11T05:30:20.041Z,99.90
2018-11-11T05:32:49.140Z,99.90
2018-11-11T05:35:18.419Z,99.90
2018-11-11T05:37:47.732Z,99.90
2018-11-11T05:40:16.837Z,99.90
2018-11-11T05:42:45.768Z,99.90
2018-11-11T05:45:15.848Z,99.90
2018-11-11T05:47:45.166Z,99.90
2018-11-11T05:50:15.500Z,99.90
2018-11-11T05:52:45.932Z,99.90
2018-11-11T05:55:15.433Z,99.90
2018-11-11T05:57:44.692Z,99.90
2018-11-11T06:00:15.182Z,99.90
2018-11-11T06:02:44.813Z,99.90
2018-11-11T06:05:14.852Z,99.90
2018-11-11T06:07:44.325Z,99.90
2018-11-11T06:10:14.910Z,99.90
2018-11-11T06:12:44.430Z,99.90
2018-11-11T06:15:14.501Z,99.90
2018-11-11T06:17:43.828Z,99.90
2018-11-11T06:20:14.214Z,99.90
2018-11-11T06:22:43.946Z,99.90
2018-11-11T06:25:13.284Z,99.90
2018-11-11T06:27:42.862Z,99.90
2018-11-11T06:30:12.922Z,99.90
2018-11-11T06:32:42.770Z,99.90
2018-11-11T06:35:12.281Z,99.90
2018-11-11T06:37:41.728Z,99.90
2018-11-11T06:40:12.209Z,99.90
2018-11-11T06:42:41.933Z,99.90
2018-11-11T06:45:12.580Z,99.90
2018-11-11T06:47:42.464Z,99.90
2018-11-11T06:50:12.784Z,99.90
2018-11-11T06:52:42.672Z,99.90
2018-11-11T06:55:12.193Z,99.90
2018-11-11T06:57:41.709Z,99.90
2018-11-11T07:00:13.124Z,99.90
2018-11-11T07:02:51.806Z,99.90
2018-11-11T07:05:21.015Z,99.90
2018-11-11T07:07:50.407Z,99.90
2018-11-11T07:10:20.121Z,99.90
2018-11-11T07:12:49.417Z,99.90
2018-11-11T07:15:18.641Z,99.90
2018-11-11T07:17:47.696Z,99.90
2018-11-11T07:20:16.948Z,99.90
2018-11-11T07:22:46.418Z,99.90
2018-11-11T07:25:16.029Z,99.90
2018-11-11T07:27:45.534Z,99.90
2018-11-11T07:30:14.732Z,99.90
2018-11-11T07:32:43.980Z,99.90
2018-11-11T07:35:13.108Z,99.90
2018-11-11T07:37:42.324Z,99.90
2018-11-11T07:40:13.552Z,99.90
2018-11-11T07:42:42.827Z,99.90
2018-11-11T07:45:14.731Z,99.90
2018-11-11T07:47:44.055Z,99.90
2018-11-11T07:50:14.542Z,99.90
2018-11-11T07:52:43.743Z,99.90
2018-11-11T07:55:13.287Z,99.90
2018-11-11T07:57:42.744Z,99.90
2018-11-11T08:00:18.017Z,99.90
2018-11-11T08:02:48.275Z,99.90
2018-11-11T08:05:17.487Z,99.90
2018-11-11T08:07:46.750Z,99.90
2018-11-11T08:10:27.070Z,99.90
2018-11-11T08:12:56.283Z,99.90
2018-11-11T08:15:25.582Z,99.90
2018-11-11T08:17:55.154Z,99.90
2018-11-11T08:20:24.370Z,99.90
2018-11-11T08:22:53.484Z,99.90
2018-11-11T08:25:24.465Z,99.90
2018-11-11T08:27:54.089Z,99.90
2018-11-11T08:30:23.515Z,99.90
2018-11-11T08:32:54.533Z,99.90
2018-11-11T08:35:23.913Z,99.90
2018-11-11T08:37:55.122Z,99.90
2018-11-11T08:40:24.477Z,99.90
2018-11-11T08:42:54.094Z,99.90
2018-11-11T08:45:23.321Z,99.90
2018-11-11T08:47:52.804Z,99.90
2018-11-11T08:50:22.142Z,99.90
2018-11-11T08:52:51.467Z,99.90
2018-11-11T08:55:20.918Z,99.90
2018-11-11T08:57:50.123Z,99.90
2018-11-11T09:00:19.343Z,99.90
2018-11-11T09:02:48.849Z,99.90
2018-11-11T09:05:18.221Z,99.90
2018-11-11T09:07:48.689Z,99.30
2018-11-11T09:10:18.141Z,97.80
2018-11-11T09:12:47.625Z,94.00
2018-11-11T09:15:16.872Z,93.20
2018-11-11T09:17:46.233Z,95.50
2018-11-11T09:20:18.513Z,91.50
2018-11-11T09:22:57.852Z,87.10
2018-11-11T09:25:28.052Z,88.50
2018-11-11T09:27:57.880Z,88.40
2018-11-11T09:30:28.722Z,88.10
2018-11-11T09:32:59.799Z,87.10
2018-11-11T09:35:29.323Z,88.60
2018-11-11T09:37:59.916Z,85.60
2018-11-11T09:40:29.940Z,83.50
2018-11-11T09:42:59.364Z,80.60
2018-11-11T09:45:29.012Z,88.00
2018-11-11T09:48:02.814Z,77.20
2018-11-11T09:50:36.706Z,78.60
2018-11-11T09:53:11.294Z,75.50
2018-11-11T09:55:40.964Z,73.60
2018-11-11T09:58:15.819Z,74.10
2018-11-11T10:00:46.704Z,74.00
2018-11-11T10:03:22.447Z,72.20
2018-11-11T10:06:25.151Z,71.50
2018-11-11T10:11:04.086Z,72.50
2018-11-11T10:13:40.012Z,75.00
2018-11-11T10:16:15.195Z,70.50
2018-11-11T10:20:56.391Z,71.80
2018-11-11T10:23:30.898Z,73.80
2018-11-11T10:26:29.896Z,75.00
2018-11-11T10:29:04.727Z,74.40
2018-11-11T10:32:05.096Z,70.00
2018-11-11T10:35:39.711Z,70.50
2018-11-11T10:40:21.117Z,70.10
2018-11-11T10:42:57.879Z,69.70
2018-11-11T10:45:50.775Z,66.20
2018-11-11T10:48:26.039Z,61.60
2018-11-11T10:50:59.945Z,62.10
2018-11-11T10:53:29.279Z,61.90
2018-11-11T10:55:58.481Z,64.40
2018-11-11T10:58:28.480Z,65.10
2018-11-11T11:01:03.291Z,63.50
2018-11-11T11:03:34.279Z,64.40
2018-11-11T11:06:04.185Z,63.80
2018-11-11T11:08:33.447Z,67.40
2018-11-11T11:11:02.764Z,64.10
2018-11-11T11:13:33.490Z,61.40
2018-11-11T11:16:02.892Z,62.50
2018-11-11T11:18:32.528Z,63.80
2018-11-11T11:21:02.223Z,60.80
2018-11-11T11:23:31.533Z,63.10
2018-11-11T11:26:00.643Z,61.90
2018-11-11T11:28:29.793Z,64.20
2018-11-11T11:31:00.046Z,64.30
2018-11-11T11:33:33.338Z,65.90
2018-11-11T11:36:03.004Z,62.70
2018-11-11T11:38:32.065Z,59.90
2018-11-11T11:41:01.421Z,58.70
2018-11-11T11:43:34.368Z,58.70
2018-11-11T11:46:03.776Z,57.60
2018-11-11T11:48:33.276Z,58.00
2018-11-11T11:51:02.623Z,56.50
2018-11-11T11:53:31.896Z,56.10
2018-11-11T11:56:01.020Z,52.40
2018-11-11T11:58:31.389Z,50.80
2018-11-11T12:01:00.601Z,48.50
2018-11-11T12:03:29.694Z,50.60
2018-11-11T12:05:58.546Z,57.80
2018-11-11T12:08:30.627Z,59.80
2018-11-11T12:11:04.990Z,61.00
2018-11-11T12:13:35.983Z,62.10
2018-11-11T12:16:05.878Z,64.10
2018-11-11T12:18:35.544Z,63.60
2018-11-11T12:21:04.991Z,63.30
2018-11-11T12:23:35.683Z,60.60
2018-11-11T12:26:05.272Z,57.80
2018-11-11T12:28:34.491Z,55.10
2018-11-11T12:31:06.143Z,59.10
2018-11-11T12:33:35.821Z,64.40
2018-11-11T12:36:05.803Z,68.30
2018-11-11T12:38:34.894Z,69.60
2018-11-11T12:41:04.651Z,70.50
2018-11-11T12:43:34.123Z,72.80
2018-11-11T12:46:04.168Z,75.60
2018-11-11T12:48:38.164Z,77.80
2018-11-11T12:51:09.902Z,83.30
2018-11-11T12:53:41.684Z,81.40
2018-11-11T12:56:15.150Z,81.00
2018-11-11T12:58:47.609Z,80.20
2018-11-11T13:01:19.928Z,81.30
2018-11-11T13:03:51.187Z,80.20
2018-11-11T13:06:22.386Z,79.50
2018-11-11T13:08:54.790Z,80.90
2018-11-11T13:11:26.135Z,91.60
2018-11-11T13:13:55.562Z,92.10
2018-11-11T13:16:25.008Z,90.40
2018-11-11T13:18:56.545Z,93.30
2018-11-11T13:21:31.529Z,93.30
2018-11-11T13:24:05.636Z,95.30
2018-11-11T13:26:37.667Z,95.50
2018-11-11T13:29:10.369Z,93.00
2018-11-11T13:31:44.473Z,92.10
2018-11-11T13:34:14.544Z,93.40
2018-11-11T13:36:44.139Z,92.10
2018-11-11T13:39:15.348Z,91.80
2018-11-11T13:41:47.780Z,92.50
2018-11-11T13:44:18.623Z,92.30
2018-11-11T13:46:48.390Z,92.00
2018-11-11T13:49:22.857Z,91.70
2018-11-11T13:51:58.941Z,92.40
2018-11-11T13:54:28.229Z,92.30
2018-11-11T13:56:57.661Z,91.90
2018-11-11T13:59:26.927Z,91.90
2018-11-11T14:01:57.112Z,92.50
2018-11-11T14:04:26.468Z,99.90
2018-11-11T14:06:56.097Z,99.90
2018-11-11T14:09:25.500Z,99.90
2018-11-11T14:11:57.713Z,99.90
2018-11-11T14:14:27.310Z,99.90
2018-11-11T14:16:56.777Z,99.90
2018-11-11T14:22:20.887Z,99.90
2018-11-11T14:24:54.353Z,99.90
2018-11-11T14:27:30.153Z,99.90
2018-11-11T14:30:05.822Z,99.90
2018-11-11T14:32:42.307Z,99.90
2018-11-11T14:35:17.172Z,99.90
2018-11-11T14:37:50.842Z,99.90
2018-11-11T14:40:23.287Z,99.90
2018-11-11T14:43:00.041Z,99.90
2018-11-11T14:45:29.209Z,99.90
2018-11-11T14:47:59.296Z,99.90
2018-11-11T14:50:29.274Z,99.90
2018-11-11T14:53:01.741Z,99.90
2018-11-11T14:55:31.584Z,99.90
2018-11-11T14:58:02.132Z,99.90
2018-11-11T15:00:33.926Z,99.90
2018-11-11T15:03:08.604Z,99.90
2018-11-11T15:05:38.363Z,99.90
2018-11-11T15:08:08.113Z,99.90
2018-11-11T15:10:37.572Z,99.90
2018-11-11T15:13:07.257Z,99.90
2018-11-11T15:15:37.734Z,99.90
2018-11-11T15:18:07.208Z,99.90
2018-11-11T15:20:37.430Z,99.90
2018-11-11T15:23:06.812Z,99.90
2018-11-11T15:25:36.306Z,99.90
2018-11-11T15:28:05.678Z,99.90
2018-11-11T15:30:36.043Z,99.90
2018-11-11T15:33:05.835Z,99.90
2018-11-11T15:35:35.384Z,99.90
2018-11-11T15:38:07.481Z,99.90
2018-11-11T15:40:40.067Z,99.90
2018-11-11T15:43:10.845Z,99.90
2018-11-11T15:45:41.117Z,99.90
2018-11-11T15:48:10.617Z,99.90
2018-11-11T15:50:41.004Z,99.90
2018-11-11T15:53:11.557Z,99.90
2018-11-11T15:55:42.036Z,99.90
2018-11-11T15:58:14.466Z,99.90
2018-11-11T16:00:44.981Z,99.90
2018-11-11T16:03:16.124Z,99.90
2018-11-11T16:05:45.523Z,99.90
2018-11-11T16:08:15.322Z,99.90
2018-11-11T16:10:44.689Z,99.90
2018-11-11T16:13:14.179Z,99.90
2018-11-11T16:15:43.849Z,99.90
2018-11-11T16:18:14.232Z,99.90
2018-11-11T16:20:43.458Z,99.90
2018-11-11T16:23:13.701Z,99.90
2018-11-11T16:25:43.671Z,99.90
2018-11-11T16:28:12.963Z,99.90
2018-11-11T16:30:43.240Z,99.90
2018-11-11T16:33:12.586Z,99.90
2018-11-11T16:35:48.682Z,99.90
2018-11-11T16:38:18.592Z,99.90
2018-11-11T16:40:48.771Z,99.90
2018-11-11T16:43:18.157Z,99.90
2018-11-11T16:45:47.872Z,99.90
2018-11-11T16:48:18.597Z,99.90
2018-11-11T16:50:47.699Z,99.90
2018-11-11T16:53:17.759Z,99.90
2018-11-11T16:55:46.847Z,99.90
2018-11-11T16:58:16.527Z,99.90
2018-11-11T17:00:46.151Z,99.90
2018-11-11T17:03:15.627Z,99.90
2018-11-11T17:05:47.204Z,99.90
2018-11-11T17:08:16.519Z,99.90
2018-11-11T17:10:46.029Z,99.90
2018-11-11T17:13:15.294Z,99.90
2018-11-11T17:15:44.857Z,99.90
2018-11-11T17:18:17.555Z,99.90
2018-11-11T17:20:47.092Z,99.90
2018-11-11T17:23:17.909Z,99.90
2018-11-11T17:25:47.613Z,99.90
2018-11-11T17:28:17.806Z,99.90
2018-11-11T17:30:47.061Z,99.90
2018-11-11T17:33:16.480Z,99.90
2018-11-11T17:35:45.938Z,99.90
2018-11-11T17:38:15.718Z,99.90
2018-11-11T17:40:45.001Z,99.90
2018-11-11T17:43:14.648Z,99.90
2018-11-11T17:45:44.047Z,99.90
2018-11-11T17:48:13.366Z,99.90
2018-11-11T17:50:42.988Z,99.90
2018-11-11T17:53:12.323Z,99.90
2018-11-11T17:55:41.708Z,99.90
2018-11-11T17:58:11.070Z,99.90
2018-11-11T18:00:40.623Z,99.90
2018-11-11T18:03:10.485Z,99.90
2018-11-11T18:05:41.098Z,99.90
2018-11-11T18:08:10.567Z,99.90
2018-11-11T18:10:39.881Z,99.90
2018-11-11T18:13:09.574Z,99.90
2018-11-11T18:15:38.962Z,99.90
2018-11-11T18:18:08.188Z,99.90
2018-11-11T18:20:38.471Z,99.90
2018-11-11T18:23:08.112Z,99.90
2018-11-11T18:25:37.328Z,99.90
2018-11-11T18:28:06.964Z,99.90
2018-11-11T18:30:36.553Z,99.90
2018-11-11T18:33:05.892Z,99.90
2018-11-11T18:35:35.160Z,99.90
2018-11-11T18:38:04.411Z,99.90
2018-11-11T18:40:34.045Z,99.90
2018-11-11T18:43:03.662Z,99.90
2018-11-11T18:45:32.743Z,99.90
2018-11-11T18:48:02.092Z,99.90
2018-11-11T18:50:32.712Z,99.90
2018-11-11T18:53:02.826Z,99.90
2018-11-11T18:55:32.191Z,99.90
2018-11-11T18:58:01.401Z,99.90
2018-11-11T19:00:31.833Z,99.90
2018-11-11T19:03:01.380Z,99.90
2018-11-11T19:05:31.032Z,99.90
2018-11-11T19:08:00.792Z,99.90
2018-11-11T19:10:33.319Z,99.90
2018-11-11T19:13:07.191Z,99.90
2018-11-11T19:15:36.616Z,99.90
2018-11-11T19:18:06.162Z,99.90
2018-11-11T19:20:35.889Z,99.90
2018-11-11T19:23:06.992Z,99.90
2018-11-11T19:25:36.456Z,99.90
2018-11-11T19:28:05.607Z,99.90
2018-11-11T19:30:34.897Z,99.90
2018-11-11T19:33:05.478Z,99.90
2018-11-11T19:35:34.958Z,99.90
2018-11-11T19:38:04.602Z,99.90
2018-11-11T19:40:35.171Z,99.90
2018-11-11T19:43:05.469Z,99.90
2018-11-11T19:45:35.776Z,99.90
2018-11-11T19:48:05.566Z,99.90
2018-11-11T19:50:35.911Z,99.90
2018-11-11T19:53:05.581Z,99.90
2018-11-11T19:55:35.340Z,99.90
2018-11-11T19:58:04.553Z,99.90
2018-11-11T20:00:34.157Z,99.90
2018-11-11T20:03:05.513Z,99.90
2018-11-11T20:05:35.268Z,99.90
2018-11-11T20:08:06.537Z,99.90
2018-11-11T20:10:35.734Z,99.90
2018-11-11T20:13:05.188Z,99.90
2018-11-11T20:15:34.973Z,99.90
2018-11-11T20:18:05.275Z,99.90
2018-11-11T20:20:39.039Z,99.90
2018-11-11T20:23:08.191Z,99.90
2018-11-11T20:25:37.090Z,99.90
2018-11-11T20:28:06.038Z,99.90
2018-11-11T20:30:36.875Z,99.90
2018-11-11T20:33:07.569Z,99.90
2018-11-11T20:35:36.871Z,99.90
2018-11-11T20:38:06.419Z,99.90
2018-11-11T20:40:36.827Z,99.90
2018-11-11T20:43:06.346Z,99.90
2018-11-11T20:45:35.399Z,99.90
2018-11-11T20:48:05.177Z,99.90
2018-11-11T20:50:37.603Z,99.90
2018-11-11T20:53:07.483Z,99.90
2018-11-11T20:55:37.083Z,99.90
2018-11-11T20:58:06.613Z,99.90
2018-11-11T21:00:37.581Z,99.90
2018-11-11T21:03:08.024Z,99.90
2018-11-11T21:05:37.509Z,99.90
2018-11-11T21:08:07.243Z,99.90
2018-11-11T21:10:36.682Z,99.90
2018-11-11T21:13:06.003Z,99.90
2018-11-11T21:15:35.509Z,99.90
2018-11-11T21:18:05.061Z,99.90
2018-11-11T21:20:34.383Z,99.90
2018-11-11T21:23:03.486Z,99.90
2018-11-11T21:25:33.195Z,99.90
2018-11-11T21:28:02.465Z,99.90
2018-11-11T21:30:32.415Z,99.90
2018-11-11T21:33:01.825Z,99.90
2018-11-11T21:35:31.057Z,99.90
2018-11-11T21:38:00.352Z,99.90
2018-11-11T21:40:29.737Z,99.90
2018-11-11T21:42:59.434Z,99.90
2018-11-11T21:45:29.225Z,99.90
2018-11-11T21:47:58.654Z,99.90
2018-11-11T21:50:28.552Z,99.90
2018-11-11T21:53:37.672Z,99.90
2018-11-11T21:56:07.195Z,99.90
2018-11-11T21:58:36.495Z,99.90
2018-11-11T22:01:06.725Z,99.90
2018-11-11T22:03:36.295Z,99.90
2018-11-11T22:06:05.744Z,99.90
2018-11-11T22:08:35.126Z,99.90
2018-11-11T22:11:04.427Z,99.90
2018-11-11T22:13:33.833Z,99.90
2018-11-11T22:16:03.601Z,99.90
2018-11-11T22:18:32.740Z,99.90
2018-11-11T22:21:02.057Z,99.90
2018-11-11T22:23:31.642Z,99.90
2018-11-11T22:26:01.108Z,99.90
2018-11-11T22:28:30.464Z,99.90
2018-11-11T22:30:59.604Z,99.90
2018-11-11T22:33:29.007Z,99.90
2018-11-11T22:35:58.652Z,99.90
2018-11-11T22:38:28.400Z,99.90
2018-11-11T22:40:58.834Z,99.90
2018-11-11T22:43:28.206Z,99.90
2018-11-11T22:45:57.796Z,99.90
2018-11-11T22:48:26.984Z,99.90
2018-11-11T22:50:56.375Z,99.90
2018-11-11T22:53:25.400Z,99.90
2018-11-11T22:55:54.668Z,99.90
2018-11-11T22:58:24.033Z,99.90
2018-11-11T23:00:58.750Z,99.90
2018-11-11T23:03:28.057Z,99.90
2018-11-11T23:05:57.241Z,99.90
2018-11-11T23:08:26.593Z,99.90
2018-11-11T23:10:55.625Z,99.90
2018-11-11T23:13:24.522Z,99.90
2018-11-11T23:15:54.039Z,99.90
2018-11-11T23:18:23.316Z,99.90
2018-11-11T23:20:52.614Z,99.90
2018-11-11T23:23:22.582Z,99.90
2018-11-11T23:25:51.777Z,99.90
2018-11-11T23:28:21.738Z,99.90
2018-11-11T23:30:50.929Z,99.90
2018-11-11T23:33:20.161Z,99.90
2018-11-11T23:35:49.440Z,99.90
2018-11-11T23:38:19.134Z,99.90
2018-11-11T23:40:48.643Z,99.90
2018-11-11T23:43:18.000Z,99.90
2018-11-11T23:45:47.301Z,99.90
2018-11-11T23:48:16.411Z,99.90
2018-11-11T23:50:45.710Z,99.90
2018-11-11T23:53:15.048Z,99.90
2018-11-11T23:55:44.714Z,99.90
2018-11-11T23:58:13.965Z,99.90
